Time;durP1;ratioP1;P1;durP2;ratioP2;P2;SDS_P1;SDS_P2;PMS_P1;PMS_P2;Temp;Humidity;BMP_temperature;BMP_pressure;BME280_temperature;BME280_humidity;BME280_pressure;Samples;Min_cycle;Max_cycle;Signal;HPM_P1;HPM_P2
2023/03/26 00:00:12;;;;;;;3.42;1.50;;;;;;;;;;4969461;28;20047;-65
2023/03/26 00:02:42;;;;;;;4.85;1.15;;;;;;;;;;4969595;28;20478;-66
2023/03/26 00:05:13;;;;;;;7.88;1.58;;;;;;;;;;4969699;28;20054;-64
2023/03/26 00:07:43;;;;;;;2.53;1.52;;;;;;;;;;4971702;28;20527;-64
2023/03/26 00:10:14;;;;;;;3.63;1.00;;;;;;;;;;4970427;28;20450;-64
2023/03/26 00:12:44;;;;;;;5.75;1.60;;;;;;;;;;4975164;28;20510;-64
2023/03/26 00:15:14;;;;;;;2.10;1.20;;;;;;;;;;4957548;28;20042;-64
2023/03/26 00:17:47;;;;;;;3.58;1.63;;;;;;;;;;4944021;28;20158;-64
2023/03/26 00:20:17;;;;;;;5.93;1.40;;;;;;;;;;4992537;28;20054;-64
2023/03/26 00:22:46;;;;;;;2.78;1.30;;;;;;;;;;4995635;28;20401;-64
2023/03/26 00:25:17;;;;;;;4.47;1.48;;;;;;;;;;5029216;28;20521;-65
2023/03/26 00:27:48;;;;;;;4.13;1.67;;;;;;;;;;5032206;28;20521;-65
2023/03/26 00:30:18;;;;;;;3.50;1.52;;;;;;;;;;5032012;28;20157;-64
2023/03/26 00:32:49;;;;;;;4.15;1.70;;;;;;;;;;5053864;28;20067;-64
2023/03/26 00:35:22;;;;;;;5.40;1.05;;;;;;;;;;4997956;28;21045;-65
2023/03/26 00:37:52;;;;;;;5.22;1.60;;;;;;;;;;5031781;28;20069;-64
2023/03/26 00:40:22;;;;;;;5.32;1.90;;;;;;;;;;5031741;28;20054;-65
2023/03/26 00:42:52;;;;;;;4.13;1.73;;;;;;;;;;5031561;28;20041;-66
2023/03/26 00:45:22;;;;;;;5.25;1.52;;;;;;;;;;5031799;28;20537;-65
2023/03/26 00:47:52;;;;;;;3.92;1.70;;;;;;;;;;5051159;28;20048;-65
2023/03/26 00:50:22;;;;;;;5.90;1.95;;;;;;;;;;5051504;28;20064;-65
2023/03/26 00:52:54;;;;;;;5.20;1.63;;;;;;;;;;5014825;28;20191;-66
2023/03/26 00:55:24;;;;;;;3.30;1.83;;;;;;;;;;4978869;28;20062;-65
2023/03/26 00:57:56;;;;;;;3.13;1.75;;;;;;;;;;5011853;28;20053;-66
2023/03/26 01:00:33;;;;;;;5.60;2.00;;;;;;;;;;5011500;28;20050;-67
2023/03/26 01:03:04;;;;;;;5.50;2.00;;;;;;;;;;4995051;28;20541;-63
2023/03/26 01:05:34;;;;;;;7.80;1.75;;;;;;;;;;4997698;28;20065;-65
2023/03/26 01:08:29;;;;;;;2.45;1.90;;;;;;;;;;4982360;28;20053;-66
2023/03/26 01:11:06;;;;;;;11.10;2.00;;;;;;;;;;5014507;28;20053;-68
2023/03/26 01:13:38;;;;;;;6.43;2.05;;;;;;;;;;5031562;28;20444;-66
2023/03/26 01:16:22;;;;;;;7.18;1.77;;;;;;;;;;5014403;28;20524;-66
2023/03/26 01:18:57;;;;;;;3.28;1.55;;;;;;;;;;5030321;28;20567;-66
2023/03/26 01:21:28;;;;;;;5.03;1.70;;;;;;;;;;5031262;28;20045;-67
2023/03/26 01:24:00;;;;;;;3.05;1.77;;;;;;;;;;4990988;28;20085;-65
2023/03/26 01:26:48;;;;;;;4.28;1.35;;;;;;;;;;4943286;28;20431;-64
2023/03/26 01:30:00;;;;;;;5.00;1.85;;;;;;;;;;5007609;28;20096;-67
2023/03/26 01:32:46;;;;;;;7.10;1.70;;;;;;;;;;4954268;28;20057;-67
2023/03/26 01:35:18;;;;;;;7.00;1.48;;;;;;;;;;5010761;28;20406;-66
2023/03/26 01:38:01;;;;;;;4.72;2.15;;;;;;;;;;5010937;28;20073;-68
2023/03/26 01:40:41;;;;;;;5.97;2.10;;;;;;;;;;5011041;28;20058;-66
2023/03/26 01:43:17;;;;;;;4.43;2.00;;;;;;;;;;5010789;28;20096;-66
2023/03/26 01:45:49;;;;;;;4.13;2.20;;;;;;;;;;5027042;28;20050;-66
2023/03/26 01:48:18;;;;;;;;;;;;;;;;;;5050559;28;20424;-66
2023/03/26 01:50:52;;;;;;;5.63;2.33;;;;;;;;;;4977792;28;20426;-65
2023/03/26 01:53:24;;;;;;;7.50;2.03;;;;;;;;;;4990754;28;20510;-65
2023/03/26 01:56:06;;;;;;;6.75;2.17;;;;;;;;;;4990894;28;20502;-65
2023/03/26 01:59:24;;;;;;;4.03;2.03;;;;;;;;;;4990981;28;20066;-65
2023/03/26 02:02:20;;;;;;;5.00;1.98;;;;;;;;;;4913917;29;20556;-65
2023/03/26 02:05:04;;;;;;;8.52;2.30;;;;;;;;;;4932735;29;20052;-66
2023/03/26 02:07:41;;;;;;;3.42;1.55;;;;;;;;;;4932872;29;20413;-65
2023/03/26 02:10:22;;;;;;;7.18;2.08;;;;;;;;;;4932579;29;20060;-64
2023/03/26 02:12:56;;;;;;;3.75;2.13;;;;;;;;;;4847662;29;20061;-65
2023/03/26 02:15:26;;;;;;;5.20;1.90;;;;;;;;;;4857488;29;20065;-66
2023/03/26 02:17:58;;;;;;;4.07;1.73;;;;;;;;;;4887532;29;20049;-65
2023/03/26 02:20:29;;;;;;;6.65;1.90;;;;;;;;;;4857654;29;20061;-64
2023/03/26 02:22:59;;;;;;;5.65;1.95;;;;;;;;;;4894775;29;20064;-64
2023/03/26 02:25:29;;;;;;;3.47;1.75;;;;;;;;;;4907078;29;20052;-64
2023/03/26 02:28:00;;;;;;;11.07;1.83;;;;;;;;;;4918872;29;20425;-63
2023/03/26 02:30:32;;;;;;;7.95;1.75;;;;;;;;;;4920888;29;20058;-63
2023/03/26 02:33:02;;;;;;;5.97;1.63;;;;;;;;;;4951637;29;20067;-63
2023/03/26 02:35:44;;;;;;;6.38;1.85;;;;;;;;;;4902745;29;20416;-63
2023/03/26 02:38:15;;;;;;;4.13;1.80;;;;;;;;;;4916518;29;20570;-63
2023/03/26 02:40:45;;;;;;;5.00;1.98;;;;;;;;;;4932204;29;20060;-64
2023/03/26 02:43:16;;;;;;;7.93;1.90;;;;;;;;;;4863931;29;20056;-64
2023/03/26 02:45:45;;;;;;;4.75;1.73;;;;;;;;;;4878725;29;20044;-64
2023/03/26 02:48:35;;;;;;;10.52;2.55;;;;;;;;;;4889381;29;20057;-64
2023/03/26 02:51:16;;;;;;;5.53;2.22;;;;;;;;;;4861055;29;20054;-64
2023/03/26 02:54:15;;;;;;;4.72;1.95;;;;;;;;;;4814314;29;20559;-63
2023/03/26 02:56:54;;;;;;;6.28;2.30;;;;;;;;;;4815686;29;20062;-63
2023/03/26 02:59:51;;;;;;;5.63;2.17;;;;;;;;;;4860661;29;20060;-63
2023/03/26 03:02:37;;;;;;;3.05;1.63;;;;;;;;;;4840545;29;20060;-65
2023/03/26 03:05:26;;;;;;;2.58;1.48;;;;;;;;;;4849463;29;20077;-64
2023/03/26 03:08:17;;;;;;;4.13;1.67;;;;;;;;;;4838942;29;20057;-64
2023/03/26 03:11:12;;;;;;;3.85;1.80;;;;;;;;;;4857018;29;20656;-64
2023/03/26 03:13:45;;;;;;;9.80;1.95;;;;;;;;;;4830754;29;20060;-65
2023/03/26 03:16:22;;;;;;;6.00;1.40;;;;;;;;;;4875331;29;20056;-64
2023/03/26 03:18:55;;;;;;;7.10;2.03;;;;;;;;;;4887629;29;20053;-63
2023/03/26 03:21:36;;;;;;;6.97;1.63;;;;;;;;;;4893988;29;20048;-64
2023/03/26 03:24:08;;;;;;;3.80;2.17;;;;;;;;;;4875273;29;20090;-63
2023/03/26 03:26:44;;;;;;;3.30;1.75;;;;;;;;;;4893843;29;20529;-64
2023/03/26 03:29:46;;;;;;;4.47;1.90;;;;;;;;;;4841648;29;20058;-65
2023/03/26 03:32:36;;;;;;;5.55;2.53;;;;;;;;;;4802859;29;20063;-64
2023/03/26 03:35:07;;;;;;;6.50;1.90;;;;;;;;;;4819824;29;20062;-64
2023/03/26 03:37:56;;;;;;;7.18;1.50;;;;;;;;;;4837818;29;20061;-64
2023/03/26 03:40:27;;;;;;;7.40;1.80;;;;;;;;;;4856373;29;20091;-64
2023/03/26 03:42:57;;;;;;;3.78;1.50;;;;;;;;;;4848360;29;20392;-65
2023/03/26 03:45:37;;;;;;;5.05;1.80;;;;;;;;;;4832303;29;20058;-64
2023/03/26 03:48:10;;;;;;;2.75;1.70;;;;;;;;;;4827620;29;20058;-65
2023/03/26 03:50:44;;;;;;;5.70;1.60;;;;;;;;;;4784282;29;20051;-64
2023/03/26 03:53:26;;;;;;;3.63;2.10;;;;;;;;;;4809225;29;20058;-64
2023/03/26 03:56:00;;;;;;;4.38;1.92;;;;;;;;;;4833140;29;20503;-65
2023/03/26 03:58:53;;;;;;;4.25;1.98;;;;;;;;;;4841520;29;20585;-63
2023/03/26 04:01:30;;;;;;;4.22;1.90;;;;;;;;;;4823241;29;20096;-65
2023/03/26 04:04:06;;;;;;;3.85;2.20;;;;;;;;;;4804829;29;20654;-63
2023/03/26 04:06:59;;;;;;;4.88;2.08;;;;;;;;;;4804947;29;20054;-64
2023/03/26 04:09:37;;;;;;;5.15;1.80;;;;;;;;;;4809849;29;20548;-64
2023/03/26 04:12:14;;;;;;;4.03;1.75;;;;;;;;;;4809395;29;20051;-64
2023/03/26 04:14:55;;;;;;;4.82;1.80;;;;;;;;;;4818869;29;20059;-64
2023/03/26 04:17:25;;;;;;;4.50;1.90;;;;;;;;;;4800839;29;20177;-63
2023/03/26 04:19:57;;;;;;;6.03;1.65;;;;;;;;;;4800486;29;20055;-64
2023/03/26 04:22:33;;;;;;;8.75;1.90;;;;;;;;;;4804359;29;20055;-64
2023/03/26 04:25:09;;;;;;;4.65;1.92;;;;;;;;;;4791750;29;20055;-64
2023/03/26 04:27:50;;;;;;;4.05;1.70;;;;;;;;;;4804404;29;20058;-63
2023/03/26 04:30:52;;;;;;;4.10;1.80;;;;;;;;;;4804836;29;20059;-64
2023/03/26 04:33:34;;;;;;;4.78;1.80;;;;;;;;;;4786432;30;20523;-64
2023/03/26 04:36:05;;;;;;;2.85;1.80;;;;;;;;;;4771415;30;20056;-63
2023/03/26 04:38:48;;;;;;;5.93;1.95;;;;;;;;;;4768063;30;20060;-65
2023/03/26 04:41:25;;;;;;;6.03;1.70;;;;;;;;;;4763922;30;20056;-64
2023/03/26 04:44:00;;;;;;;3.20;1.40;;;;;;;;;;4781970;30;20063;-65
2023/03/26 04:46:37;;;;;;;4.43;1.90;;;;;;;;;;4746208;30;20066;-65
2023/03/26 04:49:13;;;;;;;4.13;2.25;;;;;;;;;;4759999;30;20044;-67
2023/03/26 04:51:45;;;;;;;5.93;2.42;;;;;;;;;;4730810;30;20057;-64
2023/03/26 04:54:53;;;;;;;;;;;;;;;;;;4749958;30;20071;-64
2023/03/26 04:57:34;;;;;;;4.95;1.92;;;;;;;;;;4768044;30;19925;-64
2023/03/26 05:00:19;;;;;;;2.63;1.58;;;;;;;;;;4761664;30;20059;-64
2023/03/26 05:02:58;;;;;;;3.10;1.90;;;;;;;;;;4776078;30;20064;-64
2023/03/26 05:05:29;;;;;;;4.28;2.03;;;;;;;;;;4771599;30;20759;-63
2023/03/26 05:08:00;;;;;;;7.28;1.95;;;;;;;;;;4775544;30;20070;-63
2023/03/26 05:10:30;;;;;;;4.82;2.15;;;;;;;;;;4785990;29;20051;-64
2023/03/26 05:13:05;;;;;;;7.97;2.05;;;;;;;;;;4795721;29;20078;-67
2023/03/26 05:15:38;;;;;;;6.35;1.88;;;;;;;;;;4785765;29;20059;-64
2023/03/26 05:18:40;;;;;;;4.20;2.10;;;;;;;;;;4798051;29;20059;-63
2023/03/26 05:21:10;;;;;;;5.35;1.90;;;;;;;;;;4803762;29;20074;-64
2023/03/26 05:23:41;;;;;;;3.75;2.60;;;;;;;;;;4805131;29;20407;-64
2023/03/26 05:26:21;;;;;;;5.30;1.85;;;;;;;;;;4793145;29;20090;-63
2023/03/26 05:28:51;;;;;;;5.75;2.75;;;;;;;;;;4785639;30;20059;-64
2023/03/26 05:31:36;;;;;;;5.60;2.05;;;;;;;;;;4785499;30;20051;-64
2023/03/26 05:34:06;;;;;;;4.88;1.85;;;;;;;;;;4788253;29;20421;-66
2023/03/26 05:36:36;;;;;;;4.80;1.90;;;;;;;;;;4787845;29;20063;-64
2023/03/26 05:39:25;;;;;;;6.47;2.00;;;;;;;;;;4795863;29;20586;-65
2023/03/26 05:42:15;;;;;;;2.72;1.77;;;;;;;;;;4806514;29;20054;-64
2023/03/26 05:44:59;;;;;;;4.45;1.73;;;;;;;;;;4778757;29;20056;-64
2023/03/26 05:47:32;;;;;;;5.13;1.98;;;;;;;;;;4821414;29;20062;-64
2023/03/26 05:50:03;;;;;;;6.20;2.88;;;;;;;;;;4817824;29;20066;-64
2023/03/26 05:52:35;;;;;;;4.65;1.75;;;;;;;;;;4785221;30;20063;-65
2023/03/26 05:55:23;;;;;;;4.72;1.88;;;;;;;;;;4788461;29;20063;-64
2023/03/26 05:58:12;;;;;;;5.65;2.22;;;;;;;;;;4821717;29;20077;-64
2023/03/26 06:01:15;;;;;;;3.22;1.50;;;;;;;;;;4895404;29;20068;-63
2023/03/26 06:04:10;;;;;;;2.53;1.70;;;;;;;;;;4876974;29;20056;-64
2023/03/26 06:06:47;;;;;;;4.97;1.90;;;;;;;;;;4894850;29;20433;-64
2023/03/26 06:09:17;;;;;;;3.67;2.30;;;;;;;;;;4891255;29;20057;-65
2023/03/26 06:11:47;;;;;;;4.95;1.92;;;;;;;;;;4891099;29;20045;-64
2023/03/26 06:14:17;;;;;;;4.57;2.15;;;;;;;;;;4866982;29;20049;-64
2023/03/26 06:17:05;;;;;;;4.05;1.50;;;;;;;;;;4876027;29;20445;-66
2023/03/26 06:19:55;;;;;;;3.72;2.38;;;;;;;;;;4839425;29;20074;-64
2023/03/26 06:22:34;;;;;;;3.85;1.83;;;;;;;;;;4875817;29;20071;-65
2023/03/26 06:25:24;;;;;;;5.32;2.28;;;;;;;;;;4875547;29;20056;-64
2023/03/26 06:28:13;;;;;;;8.27;2.15;;;;;;;;;;4868370;29;20790;-64
2023/03/26 06:31:03;;;;;;;6.75;2.03;;;;;;;;;;4909420;29;20056;-64
2023/03/26 06:33:36;;;;;;;4.45;2.10;;;;;;;;;;4913448;29;20071;-65
2023/03/26 06:36:07;;;;;;;5.15;2.10;;;;;;;;;;4924628;29;20081;-64
2023/03/26 06:38:37;;;;;;;4.15;2.33;;;;;;;;;;4931385;29;20048;-64
2023/03/26 06:41:09;;;;;;;4.97;2.05;;;;;;;;;;4905971;29;20527;-64
2023/03/26 06:44:04;;;;;;;4.57;2.00;;;;;;;;;;4930920;29;20047;-64
2023/03/26 06:46:52;;;;;;;3.63;1.90;;;;;;;;;;4932491;29;20047;-64
2023/03/26 06:49:40;;;;;;;7.65;1.60;;;;;;;;;;4933048;29;20428;-64
2023/03/26 06:52:39;;;;;;;8.70;2.15;;;;;;;;;;4913449;29;20060;-65
2023/03/26 06:55:35;;;;;;;4.22;2.17;;;;;;;;;;4878802;29;20053;-64
2023/03/26 06:58:12;;;;;;;4.82;1.80;;;;;;;;;;4875573;29;20069;-64
2023/03/26 07:00:45;;;;;;;3.60;2.05;;;;;;;;;;4863005;29;20070;-64
2023/03/26 07:03:34;;;;;;;4.05;2.60;;;;;;;;;;4876258;29;20049;-64
2023/03/26 07:06:23;;;;;;;9.35;1.98;;;;;;;;;;4873804;29;20073;-64
2023/03/26 07:09:29;;;;;;;6.90;1.80;;;;;;;;;;4906067;29;20057;-64
2023/03/26 07:12:25;;;;;;;5.75;2.25;;;;;;;;;;4894466;29;20048;-64
2023/03/26 07:15:27;;;;;;;4.97;2.80;;;;;;;;;;4888366;29;20045;-65
2023/03/26 07:18:10;;;;;;;3.13;1.88;;;;;;;;;;4864873;29;20457;-64
2023/03/26 07:20:54;;;;;;;7.45;1.90;;;;;;;;;;4916719;29;20083;-64
2023/03/26 07:23:38;;;;;;;3.20;1.77;;;;;;;;;;4916616;29;20048;-64
2023/03/26 07:26:42;;;;;;;4.15;1.83;;;;;;;;;;4916589;29;20497;-64
2023/03/26 07:29:38;;;;;;;6.40;1.88;;;;;;;;;;4907659;29;20140;-64
2023/03/26 07:32:47;;;;;;;8.25;2.00;;;;;;;;;;4915939;29;20055;-66
2023/03/26 07:35:57;;;;;;;12.13;2.28;;;;;;;;;;4897501;29;20060;-65
2023/03/26 07:39:05;;;;;;;4.30;2.10;;;;;;;;;;4917027;29;20535;-65
2023/03/26 07:42:24;;;;;;;5.63;2.63;;;;;;;;;;4897667;29;20068;-64
2023/03/26 07:45:39;;;;;;;3.58;2.20;;;;;;;;;;4864303;29;20054;-64
2023/03/26 07:48:43;;;;;;;4.88;2.42;;;;;;;;;;4875779;29;20061;-64
2023/03/26 07:51:35;;;;;;;4.78;2.17;;;;;;;;;;4847526;29;20049;-64
2023/03/26 07:54:44;;;;;;;3.83;1.80;;;;;;;;;;4858770;29;20395;-64
2023/03/26 07:58:20;;;;;;;5.30;2.42;;;;;;;;;;4856986;29;20058;-64
2023/03/26 08:01:47;;;;;;;3.60;2.20;;;;;;;;;;4804982;29;20511;-64
2023/03/26 08:05:02;;;;;;;6.93;2.25;;;;;;;;;;4805021;29;20066;-64
2023/03/26 08:08:29;;;;;;;4.80;2.70;;;;;;;;;;4805401;29;20055;-64
2023/03/26 08:11:53;;;;;;;6.65;2.17;;;;;;;;;;4805852;29;20062;-64
2023/03/26 08:14:47;;;;;;;7.13;2.92;;;;;;;;;;4836971;29;20090;-64
2023/03/26 08:17:41;;;;;;;3.92;2.00;;;;;;;;;;4890849;29;20064;-64
2023/03/26 08:20:29;;;;;;;4.65;2.67;;;;;;;;;;4897013;29;20055;-63
2023/03/26 08:23:16;;;;;;;5.80;2.83;;;;;;;;;;4915618;29;20059;-65
2023/03/26 08:25:51;;;;;;;6.50;2.30;;;;;;;;;;4934589;29;20047;-65
2023/03/26 08:28:54;;;;;;;3.92;2.35;;;;;;;;;;4951773;28;20054;-63
2023/03/26 08:31:32;;;;;;;4.43;2.17;;;;;;;;;;4973835;28;20066;-64
2023/03/26 08:34:02;;;;;;;5.53;2.60;;;;;;;;;;4992587;28;20062;-64
2023/03/26 08:36:32;;;;;;;4.93;2.67;;;;;;;;;;4992417;28;20094;-64
2023/03/26 08:39:01;;;;;;;7.53;3.45;;;;;;;;;;4944363;28;20081;-64
2023/03/26 08:41:52;;;;;;;5.50;2.75;;;;;;;;;;4953451;28;20051;-68
2023/03/26 08:44:31;;;;;;;;;;;;;;;;;;4922350;29;20511;-64
2023/03/26 08:47:39;;;;;;;4.75;2.63;;;;;;;;;;4953520;29;19922;-64
2023/03/26 08:50:36;;;;;;;5.05;2.72;;;;;;;;;;4877388;29;20079;-64
2023/03/26 08:53:41;;;;;;;6.60;2.47;;;;;;;;;;4877730;29;20064;-63
2023/03/26 08:56:19;;;;;;;6.03;2.40;;;;;;;;;;4877705;29;20053;-64
2023/03/26 08:59:36;;;;;;;7.15;2.45;;;;;;;;;;4877302;29;20079;-66
2023/03/26 09:02:30;;;;;;;5.18;2.20;;;;;;;;;;4894659;29;20076;-65
2023/03/26 09:05:15;;;;;;;4.65;2.50;;;;;;;;;;4896595;29;20048;-64
2023/03/26 09:07:54;;;;;;;6.13;2.65;;;;;;;;;;4863385;29;20060;-66
2023/03/26 09:10:32;;;;;;;4.55;2.63;;;;;;;;;;4915228;29;20149;-64
2023/03/26 09:13:16;;;;;;;3.55;2.35;;;;;;;;;;4899273;29;20067;-64
2023/03/26 09:16:21;;;;;;;3.60;2.40;;;;;;;;;;4933988;29;20052;-65
2023/03/26 09:19:23;;;;;;;4.25;2.53;;;;;;;;;;4947391;28;20055;-64
2023/03/26 09:22:15;;;;;;;6.68;2.65;;;;;;;;;;4972279;28;20074;-64
2023/03/26 09:25:17;;;;;;;7.85;2.63;;;;;;;;;;4972590;28;20054;-64
2023/03/26 09:28:05;;;;;;;4.63;2.65;;;;;;;;;;4923876;28;20058;-64
2023/03/26 09:30:56;;;;;;;6.28;3.10;;;;;;;;;;4953764;28;20510;-65
2023/03/26 09:34:00;;;;;;;4.05;2.72;;;;;;;;;;4978205;28;20058;-64
2023/03/26 09:37:07;;;;;;;3.53;2.60;;;;;;;;;;4936427;28;20054;-65
2023/03/26 09:40:08;;;;;;;3.70;2.40;;;;;;;;;;4952193;28;20523;-64
2023/03/26 09:42:43;;;;;;;5.47;2.45;;;;;;;;;;4952678;28;20144;-65
2023/03/26 09:45:50;;;;;;;4.78;2.25;;;;;;;;;;4952584;28;20631;-65
2023/03/26 09:48:38;;;;;;;4.97;3.67;;;;;;;;;;4936511;29;20054;-65
2023/03/26 09:51:20;;;;;;;3.92;2.80;;;;;;;;;;4920582;28;20063;-67
2023/03/26 09:54:25;;;;;;;3.42;2.50;;;;;;;;;;4952537;28;20070;-65
2023/03/26 09:57:26;;;;;;;6.95;2.33;;;;;;;;;;4933019;29;20052;-64
2023/03/26 10:00:09;;;;;;;7.90;2.80;;;;;;;;;;4882877;29;20056;-64
2023/03/26 10:03:12;;;;;;;4.38;2.90;;;;;;;;;;4913991;29;20052;-65
2023/03/26 10:06:01;;;;;;;5.00;2.47;;;;;;;;;;4882548;29;20048;-65
2023/03/26 10:08:57;;;;;;;5.70;2.50;;;;;;;;;;4914191;29;20060;-64
2023/03/26 10:11:45;;;;;;;8.63;2.75;;;;;;;;;;4882496;29;20071;-64
2023/03/26 10:14:16;;;;;;;7.25;3.05;;;;;;;;;;4901238;29;20054;-64
2023/03/26 10:16:55;;;;;;;7.43;2.90;;;;;;;;;;4913720;29;20048;-66
2023/03/26 10:19:35;;;;;;;7.88;2.45;;;;;;;;;;4913778;29;20060;-64
2023/03/26 10:22:32;;;;;;;3.60;2.40;;;;;;;;;;4882454;29;20052;-65
2023/03/26 10:25:21;;;;;;;6.05;2.78;;;;;;;;;;4913989;29;20463;-64
2023/03/26 10:28:02;;;;;;;4.07;3.13;;;;;;;;;;4913767;29;20052;-64
2023/03/26 10:30:57;;;;;;;4.15;2.70;;;;;;;;;;4879532;29;20049;-64
2023/03/26 10:33:42;;;;;;;4.20;2.67;;;;;;;;;;4880611;29;20056;-65
2023/03/26 10:36:25;;;;;;;3.85;2.65;;;;;;;;;;4899012;28;20051;-64
2023/03/26 10:39:21;;;;;;;4.05;2.60;;;;;;;;;;4938852;28;20410;-64
2023/03/26 10:42:19;;;;;;;6.15;2.90;;;;;;;;;;4970706;28;20050;-64
2023/03/26 10:44:58;;;;;;;3.97;2.75;;;;;;;;;;4970699;28;20059;-65
2023/03/26 10:48:04;;;;;;;5.60;2.40;;;;;;;;;;4982723;28;20406;-64
2023/03/26 10:50:49;;;;;;;4.82;2.42;;;;;;;;;;5009906;28;20053;-64
2023/03/26 10:53:38;;;;;;;;;;;;;;;;;;4977478;28;20058;-64
2023/03/26 10:56:37;;;;;;;3.97;2.67;;;;;;;;;;4977838;28;19929;-63
2023/03/26 10:59:11;;;;;;;6.50;2.63;;;;;;;;;;4913329;29;20060;-64
2023/03/26 11:01:41;;;;;;;2.72;1.70;;;;;;;;;;4897659;29;20056;-64
2023/03/26 11:04:35;;;;;;;4.47;2.03;;;;;;;;;;4913513;29;20420;-64
2023/03/26 11:07:05;;;;;;;5.25;2.88;;;;;;;;;;4912685;29;20079;-65
2023/03/26 11:10:15;;;;;;;4.68;2.40;;;;;;;;;;4918919;29;20044;-65
2023/03/26 11:13:01;;;;;;;3.55;2.72;;;;;;;;;;4866219;29;20061;-66
2023/03/26 11:15:48;;;;;;;2.95;2.08;;;;;;;;;;4878594;29;20060;-65
2023/03/26 11:18:32;;;;;;;3.55;2.05;;;;;;;;;;4848013;29;20061;-65
2023/03/26 11:21:24;;;;;;;2.90;2.10;;;;;;;;;;4894208;29;20064;-66
2023/03/26 11:24:23;;;;;;;4.22;1.83;;;;;;;;;;4894161;29;20456;-65
2023/03/26 11:27:08;;;;;;;3.22;2.17;;;;;;;;;;4894182;29;20084;-65
2023/03/26 11:30:15;;;;;;;4.80;3.00;;;;;;;;;;4848030;29;20056;-65
2023/03/26 11:32:49;;;;;;;3.47;1.42;;;;;;;;;;4893923;29;20468;-65
2023/03/26 11:35:21;;;;;;;2.97;2.17;;;;;;;;;;4913733;29;20063;-66
2023/03/26 11:38:39;;;;;;;4.00;2.17;;;;;;;;;;4913453;29;20052;-66
2023/03/26 11:41:30;;;;;;;4.15;2.20;;;;;;;;;;4950256;29;20039;-65
2023/03/26 11:44:26;;;;;;;4.60;1.40;;;;;;;;;;4924161;29;20439;-64
2023/03/26 11:47:02;;;;;;;5.57;1.73;;;;;;;;;;4948779;29;20055;-65
2023/03/26 11:49:32;;;;;;;3.05;1.55;;;;;;;;;;4919347;28;20058;-65
2023/03/26 11:52:02;;;;;;;3.65;1.50;;;;;;;;;;4987193;28;20058;-65
2023/03/26 11:54:32;;;;;;;2.80;2.05;;;;;;;;;;4996595;28;20057;-65
2023/03/26 11:57:18;;;;;;;2.60;1.60;;;;;;;;;;5027909;28;20049;-65
2023/03/26 11:59:58;;;;;;;3.15;1.60;;;;;;;;;;5025595;28;20065;-65
2023/03/26 12:02:38;;;;;;;2.63;1.50;;;;;;;;;;5027596;28;20053;-65
2023/03/26 12:05:25;;;;;;;2.35;1.30;;;;;;;;;;5031023;28;20154;-65
2023/03/26 12:07:57;;;;;;;1.70;1.30;;;;;;;;;;5031676;28;20064;-65
2023/03/26 12:10:33;;;;;;;2.30;1.20;;;;;;;;;;5032340;28;20628;-65
2023/03/26 12:13:50;;;;;;;3.78;1.40;;;;;;;;;;5012366;28;20076;-65
2023/03/26 12:16:21;;;;;;;2.70;1.75;;;;;;;;;;4920571;29;20448;-65
2023/03/26 12:19:06;;;;;;;2.65;1.25;;;;;;;;;;4908873;29;20056;-65
2023/03/26 12:21:48;;;;;;;2.38;1.90;;;;;;;;;;4904510;29;20067;-64
2023/03/26 12:24:36;;;;;;;2.53;1.60;;;;;;;;;;4915834;29;20056;-64
2023/03/26 12:27:20;;;;;;;1.48;0.90;;;;;;;;;;4916319;29;20068;-64
2023/03/26 12:29:53;;;;;;;1.67;1.10;;;;;;;;;;4934952;29;20044;-64
2023/03/26 12:32:24;;;;;;;2.38;1.23;;;;;;;;;;4865697;29;20580;-64
2023/03/26 12:35:28;;;;;;;2.60;1.70;;;;;;;;;;4883920;29;20573;-63
2023/03/26 12:38:38;;;;;;;1.75;0.93;;;;;;;;;;4896582;29;20428;-63
2023/03/26 12:41:10;;;;;;;4.68;1.63;;;;;;;;;;4840455;29;20469;-64
2023/03/26 12:44:32;;;;;;;2.42;1.40;;;;;;;;;;4840673;29;20090;-64
2023/03/26 12:47:24;;;;;;;3.75;1.17;;;;;;;;;;4803909;29;20059;-64
2023/03/26 12:50:15;;;;;;;3.50;0.93;;;;;;;;;;4821878;29;20063;-64
2023/03/26 12:53:21;;;;;;;7.57;4.35;;;;;;;;;;4831385;29;20061;-64
2023/03/26 12:55:59;;;;;;;5.25;1.73;;;;;;;;;;4858952;29;20139;-64
2023/03/26 12:58:50;;;;;;;1.83;1.20;;;;;;;;;;4859190;29;20184;-63
2023/03/26 13:02:44;;;;;;;3.35;2.05;;;;;;;;;;4790035;29;20055;-63
2023/03/26 13:06:20;;;;;;;2.35;2.15;;;;;;;;;;4760275;29;20425;-63
2023/03/26 13:09:42;;;;;;;3.30;1.50;;;;;;;;;;4805662;29;20051;-64
2023/03/26 13:12:32;;;;;;;1.95;1.08;;;;;;;;;;4820913;29;20066;-63
2023/03/26 13:15:22;;;;;;;2.45;1.00;;;;;;;;;;4816137;29;20047;-63
2023/03/26 13:18:42;;;;;;;1.58;1.05;;;;;;;;;;4840640;29;20092;-64
2023/03/26 13:21:51;;;;;;;1.98;1.52;;;;;;;;;;4858277;29;20080;-64
2023/03/26 13:24:52;;;;;;;4.03;1.95;;;;;;;;;;4874398;29;20057;-63
2023/03/26 13:27:45;;;;;;;2.17;1.58;;;;;;;;;;4871459;29;20057;-63
2023/03/26 13:30:33;;;;;;;4.40;1.17;;;;;;;;;;4858590;29;20049;-63
2023/03/26 13:33:36;;;;;;;2.00;1.83;;;;;;;;;;4862890;29;20442;-64
2023/03/26 13:36:45;;;;;;;0.60;0.50;;;;;;;;;;4858286;29;20410;-64
2023/03/26 13:39:23;;;;;;;2.20;0.98;;;;;;;;;;4858375;29;20061;-64
2023/03/26 13:42:27;;;;;;;1.27;1.00;;;;;;;;;;4876705;29;20069;-64
2023/03/26 13:45:00;;;;;;;4.03;1.10;;;;;;;;;;4901904;29;20126;-64
2023/03/26 13:47:40;;;;;;;1.00;0.50;;;;;;;;;;4949426;28;20474;-63
2023/03/26 13:50:33;;;;;;;2.67;1.17;;;;;;;;;;4984302;28;20065;-65
2023/03/26 13:53:13;;;;;;;1.88;1.35;;;;;;;;;;4990268;28;20069;-65
2023/03/26 13:55:47;;;;;;;3.33;2.67;;;;;;;;;;4999275;28;20087;-65
2023/03/26 13:58:41;;;;;;;4.25;3.85;;;;;;;;;;4962316;28;20540;-65
2023/03/26 14:01:22;;;;;;;1.05;0.65;;;;;;;;;;5042270;28;20423;-65
2023/03/26 14:03:54;;;;;;;2.90;2.10;;;;;;;;;;5052052;28;20040;-65
2023/03/26 14:06:45;;;;;;;0.95;0.80;;;;;;;;;;5048515;28;20059;-65
2023/03/26 14:09:23;;;;;;;1.67;0.90;;;;;;;;;;5061690;28;20056;-65
2023/03/26 14:11:56;;;;;;;2.35;1.23;;;;;;;;;;5020528;28;20052;-65
2023/03/26 14:14:42;;;;;;;1.33;1.00;;;;;;;;;;4988272;28;20055;-65
2023/03/26 14:17:24;;;;;;;0.77;0.45;;;;;;;;;;5069702;28;20047;-66
2023/03/26 14:20:23;;;;;;;1.63;1.10;;;;;;;;;;5048666;28;20060;-66
2023/03/26 14:23:02;;;;;;;1.77;1.20;;;;;;;;;;5052675;28;20056;-66
2023/03/26 14:25:45;;;;;;;4.90;2.33;;;;;;;;;;5036539;28;20064;-67
2023/03/26 14:28:26;;;;;;;1.83;1.05;;;;;;;;;;5032946;28;20052;-65
2023/03/26 14:30:56;;;;;;;1.13;0.88;;;;;;;;;;5084168;28;20036;-66
2023/03/26 14:33:58;;;;;;;1.77;0.70;;;;;;;;;;5022085;28;20060;-64
2023/03/26 14:37:06;;;;;;;2.75;1.00;;;;;;;;;;5054044;28;20443;-65
2023/03/26 14:40:13;;;;;;;1.20;0.70;;;;;;;;;;5087494;28;20040;-65
2023/03/26 14:42:53;;;;;;;3.03;1.52;;;;;;;;;;5054158;28;20044;-64
2023/03/26 14:46:17;;;;;;;1.27;0.80;;;;;;;;;;5068866;28;20037;-61
2023/03/26 14:49:07;;;;;;;2.88;1.50;;;;;;;;;;4969524;28;20043;-64
2023/03/26 14:51:45;;;;;;;6.18;3.17;;;;;;;;;;4986041;28;20432;-63
2023/03/26 14:54:26;;;;;;;2.10;0.98;;;;;;;;;;4989108;28;20034;-63
2023/03/26 14:57:22;;;;;;;3.72;1.95;;;;;;;;;;4973047;28;20073;-64
2023/03/26 15:00:05;;;;;;;;;;;;;;;;;;4957497;28;20061;-63
2023/03/26 15:03:06;;;;;;;2.10;0.85;;;;;;;;;;4940552;28;20053;-64
2023/03/26 15:05:58;;;;;;;1.58;1.13;;;;;;;;;;4988810;28;20058;-64
2023/03/26 15:09:03;;;;;;;9.63;4.93;;;;;;;;;;4986380;28;20050;-66
2023/03/26 15:11:57;;;;;;;7.47;3.92;;;;;;;;;;4985771;28;20054;-65
2023/03/26 15:15:12;;;;;;;13.65;7.65;;;;;;;;;;4977259;28;20049;-66
2023/03/26 15:17:57;;;;;;;3.10;1.98;;;;;;;;;;4991046;28;20053;-65
2023/03/26 15:21:01;;;;;;;0.82;0.70;;;;;;;;;;4954360;28;20050;-66
2023/03/26 15:23:39;;;;;;;;;;;;;;;;;;5000918;28;20569;-65
2023/03/26 15:26:36;;;;;;;2.83;1.60;;;;;;;;;;5021283;28;19927;-64
2023/03/26 15:29:49;;;;;;;1.52;0.82;;;;;;;;;;5023953;28;20060;-64
2023/03/26 15:32:48;;;;;;;1.08;0.55;;;;;;;;;;4984675;28;20055;-64
2023/03/26 15:35:49;;;;;;;1.70;0.70;;;;;;;;;;4954199;28;21173;-64
2023/03/26 15:38:37;;;;;;;0.90;0.68;;;;;;;;;;4972424;28;20046;-66
2023/03/26 15:41:31;;;;;;;0.80;0.52;;;;;;;;;;4971612;28;20051;-65
2023/03/26 15:44:25;;;;;;;2.22;0.80;;;;;;;;;;4972463;28;20047;-64
2023/03/26 15:47:19;;;;;;;1.20;0.63;;;;;;;;;;4976611;28;20047;-65
2023/03/26 15:50:11;;;;;;;0.43;0.30;;;;;;;;;;4971753;28;20074;-66
2023/03/26 15:53:20;;;;;;;1.27;0.90;;;;;;;;;;4956731;28;20601;-64
2023/03/26 15:56:31;;;;;;;0.45;0.32;;;;;;;;;;4951809;28;20058;-64
2023/03/26 15:59:16;;;;;;;3.50;1.27;;;;;;;;;;4952154;28;20057;-62
2023/03/26 16:02:01;;;;;;;0.60;0.43;;;;;;;;;;4946929;28;20590;-64
2023/03/26 16:04:49;;;;;;;1.38;1.10;;;;;;;;;;4942104;29;20582;-64
2023/03/26 16:07:51;;;;;;;0.75;0.60;;;;;;;;;;4903090;29;20111;-64
2023/03/26 16:10:34;;;;;;;1.15;0.80;;;;;;;;;;5023253;28;20060;-63
2023/03/26 16:13:19;;;;;;;2.15;0.88;;;;;;;;;;5071846;28;20056;-63
2023/03/26 16:15:54;;;;;;;1.48;0.80;;;;;;;;;;5055593;28;20063;-62
2023/03/26 16:18:32;;;;;;;0.75;0.52;;;;;;;;;;5021971;28;20527;-63
2023/03/26 16:21:30;;;;;;;0.50;0.50;;;;;;;;;;5071612;28;20048;-64
2023/03/26 16:24:03;;;;;;;0.57;0.57;;;;;;;;;;5072038;28;20060;-64
2023/03/26 16:26:51;;;;;;;0.65;0.60;;;;;;;;;;5072971;28;20079;-64
2023/03/26 16:29:27;;;;;;;0.52;0.30;;;;;;;;;;5055323;28;20052;-64
2023/03/26 16:32:11;;;;;;;0.40;0.40;;;;;;;;;;5068618;28;20087;-64
2023/03/26 16:34:57;;;;;;;0.80;0.80;;;;;;;;;;5048275;28;20049;-65
2023/03/26 16:37:42;;;;;;;0.60;0.60;;;;;;;;;;4999379;28;20053;-66